Time;durP1;ratioP1;P1;durP2;ratioP2;P2;SDS_P1;SDS_P2;PMS_P1;PMS_P2;Temp;Humidity;BMP_temperature;BMP_pressure;BME280_temperature;BME280_humidity;BME280_pressure;Samples;Min_cycle;Max_cycle;Signal;HPM_P1;HPM_P2
2023/01/25 00:01:25;;;;;;;35.85;19.98;;;;;;;;;;5154077;27;20038;-71
2023/01/25 00:03:51;;;;;;;38.55;20.08;;;;;;;;;;5154044;27;20440;-70
2023/01/25 00:06:17;;;;;;;37.20;19.73;;;;;;;;;;5154021;27;20053;-70
2023/01/25 00:08:43;;;;;;;38.05;19.48;;;;;;;;;;5153608;27;20616;-70
2023/01/25 00:11:09;;;;;;;39.42;19.98;;;;;;;;;;5153952;27;20107;-69
2023/01/25 00:13:35;;;;;;;39.33;19.80;;;;;;;;;;5153919;27;20508;-69
2023/01/25 00:16:01;;;;;;;41.53;21.70;;;;;;;;;;5153918;27;20134;-70
2023/01/25 00:18:28;;;;;;;37.63;19.65;;;;;;;;;;5153871;27;20043;-70
2023/01/25 00:20:53;;;;;;;37.42;20.98;;;1.00;99.90;;;;;;5153800;27;20086;-70
2023/01/25 00:23:19;;;;;;;38.43;19.80;;;;;;;;;;5135590;27;20085;-70
2023/01/25 00:25:45;;;;;;;40.22;21.13;;;;;;;;;;5153710;27;20291;-70
2023/01/25 00:28:11;;;;;;;38.25;21.02;;;;;;;;;;5153641;27;20121;-70
2023/01/25 00:30:37;;;;;;;39.55;20.45;;;;;;;;;;5153598;27;20065;-69
2023/01/25 00:33:03;;;;;;;39.60;20.60;;;;;;;;;;5153675;27;20086;-70
2023/01/25 00:35:31;;;;;;;41.13;22.20;;;;;;;;;;5153748;27;20050;-70
2023/01/25 00:38:01;;;;;;;38.47;20.83;;;1.20;99.90;;;;;;5153598;27;20042;-69
2023/01/25 00:40:27;;;;;;;39.40;20.35;;;;;;;;;;5153245;27;20047;-70
2023/01/25 00:42:53;;;;;;;41.63;21.58;;;;;;;;;;5153552;27;20091;-69
2023/01/25 00:45:19;;;;;;;44.58;22.60;;;;;;;;;;5153640;27;20393;-69
2023/01/25 00:47:45;;;;;;;40.97;21.70;;;;;;;;;;5153466;27;20047;-70
2023/01/25 00:50:11;;;;;;;40.72;21.83;;;;;;;;;;5153477;27;20058;-70
2023/01/25 00:52:37;;;;;;;41.08;21.45;;;;;;;;;;5153502;27;20081;-70
2023/01/25 00:55:03;;;;;;;43.80;22.50;;;;;;;;;;5153412;27;20054;-69
2023/01/25 00:57:29;;;;;;;41.85;22.45;;;;;;;;;;5135130;27;20042;-69
2023/01/25 00:59:55;;;;;;;46.38;22.52;;;;;;;;;;5134916;27;20164;-70
2023/01/25 01:02:21;;;;;;;44.55;22.80;;;;;;;;;;5153395;27;20398;-70
2023/01/25 01:04:47;;;;;;;43.03;22.90;;;;;;;;;;5153410;27;20046;-69
2023/01/25 01:07:14;;;;;;;44.58;22.95;;;;;;;;;;5153348;27;20133;-69
2023/01/25 01:09:39;;;;;;;;;;;1.40;99.90;;;;;;5153730;27;20121;-69
2023/01/25 01:12:06;;;;;;;42.10;22.13;;;;;;;;;;5153365;27;20351;-69
2023/01/25 01:14:31;;;;;;;45.28;23.77;;;1.00;99.90;;;;;;5153632;27;20050;-70
2023/01/25 01:16:57;;;;;;;47.70;24.50;;;;;;;;;;5153451;27;20074;-70
2023/01/25 01:19:23;;;;;;;45.17;24.05;;;1.40;99.90;;;;;;5153330;27;20062;-70
2023/01/25 01:21:49;;;;;;;52.53;24.92;;;;;;;;;;5134924;27;20051;-69
2023/01/25 01:24:16;;;;;;;47.03;22.90;;;;;;;;;;5153157;27;20050;-70
2023/01/25 01:26:42;;;;;;;45.08;23.95;;;;;;;;;;5153153;27;20051;-71
2023/01/25 01:29:08;;;;;;;43.33;23.02;;;;;;;;;;5153096;27;20042;-70
2023/01/25 01:31:35;;;;;;;46.47;23.63;;;;;;;;;;5153184;27;20069;-70
2023/01/25 01:34:01;;;;;;;45.75;22.95;;;;;;;;;;5153094;27;20055;-70
2023/01/25 01:36:28;;;;;;;43.42;22.33;;;;;;;;;;5153040;27;20042;-70
2023/01/25 01:38:54;;;;;;;45.88;24.08;;;;;;;;;;5152136;27;20054;-69
2023/01/25 01:41:21;;;;;;;49.45;23.58;;;;;;;;;;5152686;27;20490;-70
2023/01/25 01:43:47;;;;;;;44.85;22.30;;;;;;;;;;5152978;27;20087;-70
2023/01/25 01:46:21;;;;;;;;;;;1.10;99.90;;;;;;5153352;27;20443;-70
2023/01/25 01:48:50;;;;;;;46.28;23.23;;;;;;;;;;5152882;27;20029;-70
2023/01/25 01:51:19;;;;;;;44.88;22.02;;;;;;;;;;5153080;27;20043;-70
2023/01/25 01:53:48;;;;;;;49.67;24.30;;;;;;;;;;5156649;27;20427;-69
2023/01/25 01:56:19;;;;;;;51.30;24.10;;;0.90;99.90;;;;;;5156610;27;20100;-70
2023/01/25 01:58:48;;;;;;;52.28;25.58;;;0.80;99.90;;;;;;5156690;27;20078;-69
2023/01/25 02:01:14;;;;;;;51.53;24.30;;;;;;;;;;5156523;27;20062;-69
2023/01/25 02:03:41;;;;;;;54.88;25.20;;;;;;;;;;5156465;27;20142;-70
2023/01/25 02:06:15;;;;;;;51.47;25.77;;;1.00;99.90;;;;;;5156439;27;20061;-70
2023/01/25 02:08:42;;;;;;;50.28;25.13;;;;;;;;;;5156203;27;20038;-69
2023/01/25 02:11:09;;;;;;;54.22;26.17;;;;;;;;;;5156323;27;20050;-69
2023/01/25 02:13:36;;;;;;;53.47;25.95;;;0.60;99.90;;;;;;5156255;27;20042;-69
2023/01/25 02:16:03;;;;;;;50.95;24.73;;;;;;;;;;5156157;27;20046;-70
2023/01/25 02:18:28;;;;;;;;;;;1.00;99.90;;;;;;5156527;27;20039;-70
2023/01/25 02:20:56;;;;;;;54.78;26.45;;;1.10;99.90;;;;;;5156170;27;20018;-70
2023/01/25 02:23:55;;;;;;;58.67;27.08;;;;;;;;;;5156093;27;20133;-70
2023/01/25 02:26:22;;;;;;;58.75;25.75;;;;;;;;;;5099237;27;20156;-70
2023/01/25 02:29:00;;;;;;;57.53;25.73;;;;;;;;;;5155799;27;20046;-70
2023/01/25 02:31:26;;;;;;;52.10;24.15;;;;;;;;;;5155473;27;20461;-70
2023/01/25 02:33:52;;;;;;;53.15;25.38;;;;;;;;;;5155945;27;20051;-70
2023/01/25 02:36:18;;;;;;;48.72;24.13;;;;;;;;;;5155810;27;20119;-70
2023/01/25 02:39:04;;;;;;;52.83;25.10;;;;;;;;;;5155843;27;20398;-71
2023/01/25 02:41:34;;;;;;;46.17;23.17;;;;;;;;;;5155847;27;20392;-70
2023/01/25 02:44:08;;;;;;;45.15;21.88;;;;;;;;;;5155669;27;20043;-70
2023/01/25 02:46:36;;;;;;;51.40;24.17;;;0.70;99.90;;;;;;5155697;27;20051;-69
2023/01/25 02:49:03;;;;;;;47.42;22.98;;;;;;;;;;5137186;27;20391;-72
2023/01/25 02:51:30;;;;;;;49.00;22.70;;;;;;;;;;5155713;27;20043;-70
2023/01/25 02:53:57;;;;;;;50.85;22.25;;;;;;;;;;5157423;27;20097;-71
2023/01/25 02:56:23;;;;;;;;;;;0.40;99.90;;;;;;5160272;27;20051;-69
2023/01/25 02:58:49;;;;;;;48.80;21.85;;;;;;;;;;5159912;27;19963;-70
2023/01/25 03:01:15;;;;;;;48.80;22.48;;;;;;;;;;5158246;27;20043;-69
2023/01/25 03:03:41;;;;;;;55.00;25.00;;;;;;;;;;5156210;27;20046;-69
2023/01/25 03:06:07;;;;;;;51.42;22.55;;;;;;;;;;5158628;27;20051;-71
2023/01/25 03:08:34;;;;;;;50.17;22.00;;;;;;;;;;5142293;27;20080;-70
2023/01/25 03:11:01;;;;;;;48.72;23.00;;;;;;;;;;5156988;27;20518;-70
2023/01/25 03:13:27;;;;;;;46.05;20.58;;;;;;;;;;5155219;27;20064;-69
2023/01/25 03:15:53;;;;;;;;;;;;;;;;;;5155433;27;20091;-70
2023/01/25 03:18:19;;;;;;;50.47;22.35;;;0.40;99.90;;;;;;5155015;27;19919;-69
2023/01/25 03:20:45;;;;;;;58.85;24.55;;;;;;;;;;5136383;27;20042;-70
2023/01/25 03:23:11;;;;;;;60.53;25.55;;;;;;;;;;5154851;27;20200;-69
2023/01/25 03:25:37;;;;;;;52.13;21.88;;;;;;;;;;5154848;27;20043;-69
2023/01/25 03:28:03;;;;;;;58.75;24.45;;;;;;;;;;5154736;27;20062;-70
2023/01/25 03:30:29;;;;;;;58.20;24.30;;;;;;;;;;5154397;27;20066;-70
2023/01/25 03:32:55;;;;;;;56.90;23.90;;;;;;;;;;5154695;27;20039;-69
2023/01/25 03:35:21;;;;;;;53.97;22.73;;;;;;;;;;5154631;27;20070;-70
2023/01/25 03:37:47;;;;;;;51.70;23.33;;;;;;;;;;5154579;27;20042;-69
2023/01/25 03:40:13;;;;;;;64.88;25.50;;;;;;;;;;5154524;27;20050;-70
2023/01/25 03:42:39;;;;;;;56.55;23.73;;;;;;;;;;5154491;27;20497;-71
2023/01/25 03:45:06;;;;;;;61.70;26.20;;;;;;;;;;5154448;27;20447;-70
2023/01/25 03:47:32;;;;;;;57.05;24.35;;;;;;;;;;5154342;27;20082;-70
2023/01/25 03:49:58;;;;;;;60.42;25.38;;;;;;;;;;5154222;27;20069;-71
2023/01/25 03:55:48;;;;;;;62.40;24.60;;;;;;;;;;5117425;27;20055;-69
2023/01/25 03:58:14;;;;;;;65.53;25.55;;;;;;;;;;5154226;27;20042;-69
2023/01/25 04:00:40;;;;;;;61.55;26.67;;;;;;;;;;5154144;27;20129;-70
2023/01/25 04:03:06;;;;;;;64.25;26.27;;;;;;;;;;5154059;27;20054;-69
2023/01/25 04:05:32;;;;;;;67.38;27.08;;;;;;;;;;5154040;27;20057;-69
2023/01/25 04:07:58;;;;;;;70.97;25.88;;;;;;;;;;5153944;27;20046;-69
2023/01/25 04:10:24;;;;;;;66.72;25.80;;;0.30;99.90;;;;;;5153673;27;20505;-69
2023/01/25 04:12:50;;;;;;;74.07;27.65;;;;;;;;;;5153989;27;20047;-69
2023/01/25 04:15:16;;;;;;;73.85;27.67;;;;;;;;;;5153402;27;20055;-70
2023/01/25 04:17:42;;;;;;;75.65;28.85;;;;;;;;;;5135445;27;20051;-70
2023/01/25 04:20:09;;;;;;;62.25;26.20;;;;;;;;;;5153856;27;20423;-70
2023/01/25 04:22:34;;;;;;;;;;;0.10;99.90;;;;;;5154245;27;20043;-69
2023/01/25 04:25:00;;;;;;;71.25;26.42;;;;;;;;;;5154087;27;19919;-69
2023/01/25 04:27:26;;;;;;;76.18;29.23;;;;;;;;;;5153510;27;20078;-69
2023/01/25 04:29:52;;;;;;;70.80;28.17;;;;;;;;;;5153338;27;20057;-70
2023/01/25 04:32:18;;;;;;;71.95;28.02;;;;;;;;;;5153800;27;20054;-71
2023/01/25 04:34:44;;;;;;;82.18;29.25;;;;;;;;;;5153339;27;20560;-69
2023/01/25 04:37:10;;;;;;;86.10;30.10;;;;;;;;;;5153604;27;20179;-69
2023/01/25 04:39:37;;;;;;;85.07;28.73;;;;;;;;;;5153624;27;20042;-69
2023/01/25 04:42:03;;;;;;;76.43;28.63;;;;;;;;;;5153557;27;20079;-70
2023/01/25 04:44:29;;;;;;;107.72;31.60;;;;;;;;;;5153583;27;20221;-70
2023/01/25 04:46:55;;;;;;;82.40;29.45;;;;;;;;;;5134855;27;20095;-70
2023/01/25 04:49:21;;;;;;;74.60;30.08;;;;;;;;;;5153425;27;20043;-69
2023/01/25 04:51:47;;;;;;;85.85;31.45;;;;;;;;;;5153526;27;20082;-69
2023/01/25 04:54:13;;;;;;;98.13;30.65;;;;;;;;;;5153557;27;20672;-69
2023/01/25 04:56:39;;;;;;;84.70;29.77;;;;;;;;;;5153495;27;20080;-69
2023/01/25 04:59:05;;;;;;;80.50;30.98;;;;;;;;;;5153387;27;20035;-69
2023/01/25 05:01:32;;;;;;;86.38;31.40;;;;;;;;;;5153497;27;20447;-69
2023/01/25 05:03:58;;;;;;;91.05;31.10;;;;;;;;;;5153609;27;20095;-69
2023/01/25 05:06:24;;;;;;;;;;;0.40;99.90;;;;;;5153924;27;20053;-69
2023/01/25 05:08:50;;;;;;;95.40;31.05;;;;;;;;;;5153342;27;19919;-70
2023/01/25 05:11:16;;;;;;;101.35;32.15;;;;;;;;;;5153344;27;20053;-69
2023/01/25 05:13:42;;;;;;;108.85;34.97;;;;;;;;;;5153249;27;20046;-69
2023/01/25 05:16:08;;;;;;;94.13;33.67;;;;;;;;;;5153209;27;20045;-70
2023/01/25 05:18:34;;;;;;;89.22;32.33;;;;;;;;;;5153410;27;20119;-70
2023/01/25 05:21:00;;;;;;;91.55;32.72;;;;;;;;;;5153250;27;20078;-70
2023/01/25 05:23:26;;;;;;;96.13;34.90;;;;;;;;;;5153206;27;20129;-69
2023/01/25 05:28:37;;;;;;;98.07;35.50;;;;;;;;;;5157023;27;20076;-69
2023/01/25 05:31:04;;;;;;;117.72;38.13;;;;;;;;;;5156704;27;20059;-69
2023/01/25 05:33:30;;;;;;;104.30;35.58;;;;;;;;;;5138421;27;20081;-70
2023/01/25 05:35:57;;;;;;;111.85;36.95;;;;;;;;;;5156944;27;20067;-70
2023/01/25 05:38:23;;;;;;;133.77;36.42;;;;;;;;;;5156889;27;20121;-69
2023/01/25 05:40:49;;;;;;;105.82;35.28;;;;;;;;;;5156950;27;20043;-69
2023/01/25 05:43:16;;;;;;;112.60;36.85;;;;;;;;;;5156850;27;20053;-69
2023/01/25 05:45:42;;;;;;;114.65;35.17;;;;;;;;;;5156781;27;20383;-70
2023/01/25 05:48:08;;;;;;;109.88;36.03;;;;;;;;;;5156734;27;20192;-69
2023/01/25 05:50:34;;;;;;;99.30;35.25;;;;;;;;;;5156678;27;20042;-69
2023/01/25 05:53:00;;;;;;;118.65;37.78;;;;;;;;;;5156680;27;20050;-70
2023/01/25 05:55:26;;;;;;;118.25;39.10;;;;;;;;;;5138244;27;20057;-69
2023/01/25 05:57:54;;;;;;;120.85;37.97;;;;;;;;;;5156317;27;20513;-70
2023/01/25 06:00:21;;;;;;;115.60;36.95;;;;;;;;;;5156339;27;20607;-69
2023/01/25 06:02:47;;;;;;;114.88;36.45;;;;;;;;;;5156533;27;20038;-69
2023/01/25 06:05:13;;;;;;;114.80;37.00;;;;;;;;;;5156079;27;20530;-69
2023/01/25 06:07:39;;;;;;;109.72;36.60;;;;;;;;;;5156318;27;20042;-68
2023/01/25 06:10:06;;;;;;;107.80;33.10;;;;;;;;;;5156050;27;20494;-69
2023/01/25 06:12:32;;;;;;;101.32;34.17;;;;;;;;;;5156261;27;20047;-69
2023/01/25 06:14:58;;;;;;;101.78;33.20;;;;;;;;;;5156237;27;20047;-69
2023/01/25 06:17:25;;;;;;;99.05;33.58;;;;;;;;;;5137881;27;20057;-70
2023/01/25 06:19:51;;;;;;;113.55;37.45;;;;;;;;;;5156174;27;20190;-69
2023/01/25 06:22:17;;;;;;;113.25;35.53;;;;;;;;;;5156068;27;20047;-69
2023/01/25 06:24:43;;;;;;;104.50;33.05;;;;;;;;;;5156144;27;20126;-69
2023/01/25 06:27:11;;;;;;;103.28;35.95;;;;;;;;;;5156098;27;20047;-69
2023/01/25 06:29:37;;;;;;;109.07;34.65;;;;;;;;;;5155551;27;20051;-69
2023/01/25 06:32:03;;;;;;;109.85;34.92;;;;;;;;;;5156025;27;20051;-69
2023/01/25 06:34:29;;;;;;;108.13;35.28;;;;;;;;;;5155863;27;20406;-69
2023/01/25 06:36:55;;;;;;;122.05;38.10;;;;;;;;;;5155618;27;20050;-69
2023/01/25 06:39:21;;;;;;;110.60;36.35;;;;;;;;;;5155569;27;20050;-69
2023/01/25 06:41:47;;;;;;;117.07;36.95;;;;;;;;;;5155718;27;20047;-69
2023/01/25 06:44:13;;;;;;;111.22;35.20;;;;;;;;;;5155662;27;20134;-69
2023/01/25 06:46:39;;;;;;;110.30;35.63;;;;;;;;;;5155562;27;20054;-69
2023/01/25 06:49:05;;;;;;;105.53;35.33;;;;;;;;;;5155507;27;20512;-69
2023/01/25 06:51:32;;;;;;;98.68;33.08;;;;;;;;;;5137197;27;20382;-68
2023/01/25 06:54:02;;;;;;;95.47;33.00;;;;;;;;;;5155551;27;20082;-68
2023/01/25 06:56:28;;;;;;;110.22;35.30;;;;;;;;;;5155470;27;20050;-69
2023/01/25 06:58:54;;;;;;;106.72;35.97;;;;;;;;;;5155752;27;20163;-69
2023/01/25 07:01:21;;;;;;;95.07;32.45;;;;;;;;;;5155462;27;20046;-69
2023/01/25 07:03:51;;;;;;;98.72;33.22;;;;;;;;;;5155384;27;20399;-69
2023/01/25 07:06:17;;;;;;;104.28;34.15;;;;;;;;;;5155205;27;20089;-69
2023/01/25 07:08:44;;;;;;;85.65;30.67;;;;;;;;;;5155177;27;20389;-68
2023/01/25 07:11:12;;;;;;;99.22;33.03;;;;;;;;;;5155175;27;20095;-68
2023/01/25 07:13:39;;;;;;;115.18;35.35;;;;;;;;;;5155046;27;20042;-69
2023/01/25 07:16:07;;;;;;;97.90;33.28;;;;;;;;;;5155040;27;20051;-69
2023/01/25 07:18:36;;;;;;;102.95;33.05;;;;;;;;;;5154937;27;20043;-69
2023/01/25 07:21:10;;;;;;;96.20;32.17;;;;;;;;;;5154939;27;20111;-69
2023/01/25 07:23:37;;;;;;;92.13;30.80;;;;;;;;;;5154853;27;20073;-68
2023/01/25 07:26:03;;;;;;;84.43;28.67;;;;;;;;;;5154832;27;20458;-69
2023/01/25 07:28:30;;;;;;;;;;;-0.30;99.90;;;;;;5155103;27;20043;-68
2023/01/25 07:30:56;;;;;;;87.72;29.77;;;;;;;;;;5154327;27;20048;-69
2023/01/25 07:33:22;;;;;;;85.28;30.48;;;;;;;;;;5154653;27;20043;-69
2023/01/25 07:35:49;;;;;;;94.43;31.30;;;-0.20;99.90;;;;;;5154558;27;20042;-69
2023/01/25 07:38:16;;;;;;;95.65;32.85;;;;;;;;;;5154239;27;20654;-69
2023/01/25 07:40:42;;;;;;;93.55;33.70;;;;;;;;;;5154466;27;20098;-68
2023/01/25 07:43:08;;;;;;;94.43;34.63;;;;;;;;;;5154132;27;20490;-69
2023/01/25 07:45:34;;;;;;;86.55;31.80;;;;;;;;;;5135843;27;20427;-69
2023/01/25 07:48:00;;;;;;;89.90;34.65;;;;;;;;;;5154300;27;20441;-69
2023/01/25 07:50:27;;;;;;;91.03;33.72;;;;;;;;;;5153511;27;20057;-69
2023/01/25 07:52:53;;;;;;;;;;;;;;;;;;5154771;27;20051;-69
2023/01/25 07:55:19;;;;;;;92.30;34.22;;;;;;;;;;5154221;27;19929;-69
2023/01/25 07:57:45;;;;;;;98.20;34.85;;;;;;;;;;5154192;27;20042;-68
2023/01/25 08:00:12;;;;;;;100.32;35.53;;;;;;;;;;5154203;27;20046;-70
2023/01/25 08:02:38;;;;;;;96.38;34.88;;;;;;;;;;5154146;27;20432;-69
2023/01/25 08:05:05;;;;;;;94.82;34.28;;;;;;;;;;5154086;27;20142;-69
2023/01/25 08:07:31;;;;;;;;;;;;;;;;;;5154441;27;20049;-69
2023/01/25 08:09:56;;;;;;;85.63;33.58;;;-0.20;99.90;;;;;;5153936;27;19927;-69
2023/01/25 08:12:25;;;;;;;88.82;34.83;;;;;;;;;;5153936;27;20091;-69
2023/01/25 08:14:51;;;;;;;97.63;36.55;;;;;;;;;;5153824;27;20133;-69
2023/01/25 08:17:17;;;;;;;90.22;35.15;;;;;;;;;;5153960;27;20490;-69
2023/01/25 08:19:44;;;;;;;93.90;34.30;;;;;;;;;;5153769;27;20095;-69
2023/01/25 08:22:11;;;;;;;93.85;34.10;;;;;;;;;;5153838;27;20050;-69
2023/01/25 08:24:38;;;;;;;85.38;33.47;;;;;;;;;;5153689;27;20099;-69
2023/01/25 08:27:04;;;;;;;92.75;36.83;;;;;;;;;;5153752;27;20046;-68
2023/01/25 08:29:30;;;;;;;90.65;34.08;;;;;;;;;;5153406;27;20042;-69
2023/01/25 08:31:56;;;;;;;93.15;34.45;;;;;;;;;;5153679;27;20058;-69
2023/01/25 08:34:22;;;;;;;87.93;34.20;;;;;;;;;;5153651;27;20106;-69
2023/01/25 08:36:48;;;;;;;93.63;34.30;;;;;;;;;;5153672;27;20434;-69
2023/01/25 08:39:14;;;;;;;;;;;0.40;99.90;;;;;;5154050;27;20402;-69
2023/01/25 08:41:41;;;;;;;92.53;34.83;;;0.50;99.90;;;;;;5153549;27;19918;-68
2023/01/25 08:44:07;;;;;;;97.38;35.20;;;;;;;;;;5135250;27;20474;-70
2023/01/25 08:46:33;;;;;;;91.47;35.78;;;;;;;;;;5153502;27;20039;-69
2023/01/25 08:49:00;;;;;;;98.07;36.10;;;;;;;;;;5153485;27;20043;-69
2023/01/25 08:51:27;;;;;;;99.55;36.80;;;;;;;;;;5153584;27;20965;-69
2023/01/25 08:53:53;;;;;;;;;;;;;;;;;;5154203;27;20061;-69
2023/01/25 08:56:19;;;;;;;97.85;35.95;;;;;;;;;;5153534;27;20418;-69
2023/01/25 08:58:46;;;;;;;94.35;36.28;;;;;;;;;;5134935;27;20042;-69
2023/01/25 09:01:13;;;;;;;100.57;37.35;;;;;;;;;;5155356;27;20054;-71
2023/01/25 09:03:40;;;;;;;95.32;34.38;;;;;;;;;;5157668;27;20089;-69
2023/01/25 09:06:07;;;;;;;98.97;34.80;;;;;;;;;;5157533;27;20050;-69
2023/01/25 09:08:34;;;;;;;91.90;32.90;;;;;;;;;;5157395;27;20053;-69
2023/01/25 09:11:00;;;;;;;;;;;0.40;99.90;;;;;;5157861;27;20046;-69
2023/01/25 09:13:26;;;;;;;96.68;36.22;;;;;;;;;;5157127;27;20401;-69
2023/01/25 09:15:52;;;;;;;100.57;33.85;;;;;;;;;;5157392;27;20448;-68
2023/01/25 09:18:18;;;;;;;99.75;32.67;;;;;;;;;;5157332;27;20503;-70
2023/01/25 09:20:44;;;;;;;102.32;35.28;;;;;;;;;;5157225;27;20069;-69
2023/01/25 09:23:10;;;;;;;99.43;34.97;;;;;;;;;;5157320;27;20043;-68
2023/01/25 09:25:36;;;;;;;97.95;33.33;;;;;;;;;;5138848;27;20054;-69
2023/01/25 09:28:10;;;;;;;104.50;35.67;;;;;;;;;;5157044;27;20050;-69
2023/01/25 09:30:36;;;;;;;105.80;35.80;;;;;;;;;;5156978;27;20063;-70
2023/01/25 09:33:03;;;;;;;103.30;34.83;;;;;;;;;;5157081;27;20149;-69
2023/01/25 09:35:30;;;;;;;107.00;35.80;;;;;;;;;;5156962;27;20057;-69
2023/01/25 09:37:58;;;;;;;103.68;34.75;;;;;;;;;;5156862;27;20039;-69
2023/01/25 09:40:28;;;;;;;100.18;34.88;;;;;;;;;;5156941;27;20398;-71
2023/01/25 09:43:06;;;;;;;113.75;36.38;;;;;;;;;;5156825;27;20057;-69
2023/01/25 09:45:32;;;;;;;110.60;35.22;;;;;;;;;;5156442;27;20051;-71
2023/01/25 09:48:13;;;;;;;111.63;36.30;;;;;;;;;;5156690;27;20042;-69
2023/01/25 09:50:44;;;;;;;111.28;36.67;;;;;;;;;;5156666;27;20046;-70
2023/01/25 09:53:30;;;;;;;111.35;34.58;;;;;;;;;;5156770;27;20107;-69
2023/01/25 09:56:02;;;;;;;114.85;33.55;;;;;;;;;;5156650;27;20107;-69
2023/01/25 09:58:33;;;;;;;106.70;34.95;;;0.70;99.90;;;;;;5156613;27;20425;-69
2023/01/25 10:01:04;;;;;;;105.53;36.10;;;;;;;;;;5138276;27;20072;-69
2023/01/25 10:03:31;;;;;;;109.20;35.28;;;;;;;;;;5156178;27;20779;-69
2023/01/25 10:06:00;;;;;;;100.00;32.63;;;0.30;99.90;;;;;;5137951;27;20081;-69
2023/01/25 10:08:47;;;;;;;100.60;33.22;;;;;;;;;;5156318;27;20095;-70
2023/01/25 10:11:17;;;;;;;90.15;29.17;;;;;;;;;;5155931;27;20134;-69
2023/01/25 10:13:43;;;;;;;95.78;30.85;;;;;;;;;;5155263;27;20414;-69
2023/01/25 10:16:13;;;;;;;96.03;29.50;;;;;;;;;;5156245;27;20043;-69
2023/01/25 10:19:03;;;;;;;93.40;29.83;;;1.00;99.90;;;;;;5156173;27;20095;-69
2023/01/25 10:21:32;;;;;;;104.05;30.88;;;;;;;;;;5156145;27;20050;-69
2023/01/25 10:24:04;;;;;;;107.40;31.63;;;;;;;;;;5156018;27;20046;-71
2023/01/25 10:26:34;;;;;;;111.47;33.72;;;;;;;;;;5155933;27;20061;-69
2023/01/25 10:29:10;;;;;;;101.15;30.88;;;;;;;;;;5155975;27;20117;-69
2023/01/25 10:31:49;;;;;;;108.22;33.47;;;;;;;;;;5156014;27;20061;-69
2023/01/25 10:34:37;;;;;;;112.68;34.15;;;1.30;99.90;;;;;;5155777;27;20391;-70
2023/01/25 10:37:15;;;;;;;113.07;32.40;;;1.10;99.90;;;;;;5155865;27;20061;-70
2023/01/25 10:39:53;;;;;;;108.88;34.47;;;;;;;;;;5155795;27;20073;-69
2023/01/25 10:42:19;;;;;;;110.43;31.58;;;;;;;;;;5155809;27;20050;-69
2023/01/25 10:44:45;;;;;;;108.85;31.23;;;;;;;;;;5155712;27;20439;-68
2023/01/25 10:47:26;;;;;;;107.32;29.70;;;;;;;;;;5155947;27;20440;-69
2023/01/25 10:49:56;;;;;;;119.47;33.03;;;;;;;;;;5155549;27;20043;-69
2023/01/25 10:52:23;;;;;;;93.65;28.98;;;;;;;;;;5155564;27;20046;-70
2023/01/25 10:55:21;;;;;;;119.25;31.08;;;1.00;99.90;;;;;;5155537;27;20043;-69
2023/01/25 10:57:50;;;;;;;120.55;32.10;;;1.00;99.90;;;;;;5130036;27;20187;-70
2023/01/25 11:00:23;;;;;;;112.80;32.42;;;;;;;;;;5155406;27;20125;-69
2023/01/25 11:02:49;;;;;;;119.57;30.95;;;;;;;;;;5155277;27;20588;-70
2023/01/25 11:05:18;;;;;;;104.88;30.88;;;;;;;;;;5155312;27;20042;-69
2023/01/25 11:07:47;;;;;;;112.38;30.65;;;;;;;;;;5155271;27;20094;-69
2023/01/25 11:10:40;;;;;;;107.75;29.48;;;1.40;99.90;;;;;;5155016;27;20055;-70
2023/01/25 11:13:16;;;;;;;117.00;30.45;;;;;;;;;;5150765;27;20055;-70
2023/01/25 11:15:45;;;;;;;115.75;30.85;;;;;;;;;;5155031;27;20065;-69
2023/01/25 11:18:34;;;;;;;114.38;31.35;;;;;;;;;;5154994;27;20043;-70
2023/01/25 11:21:05;;;;;;;115.82;29.80;;;;;;;;;;5141422;27;20642;-70
2023/01/25 11:23:32;;;;;;;123.25;31.38;;;;;;;;;;5154893;27;20095;-69
2023/01/25 11:26:13;;;;;;;116.32;30.58;;;1.10;99.90;;;;;;5154549;27;20649;-69
2023/01/25 11:28:39;;;;;;;120.53;31.58;;;;;;;;;;5136159;27;20079;-69
2023/01/25 11:31:10;;;;;;;120.93;30.55;;;0.70;99.90;;;;;;5154315;27;20059;-70
2023/01/25 11:33:36;;;;;;;118.18;31.25;;;;;;;;;;5154709;27;20137;-69
2023/01/25 11:36:08;;;;;;;124.93;29.73;;;;;;;;;;5154685;27;20397;-69
2023/01/25 11:38:35;;;;;;;125.63;31.60;;;;;;;;;;5136102;27;20054;-70
2023/01/25 11:41:01;;;;;;;;;;;;;;;;;;5154944;27;20459;-70
2023/01/25 11:43:30;;;;;;;110.05;29.70;;;;;;;;;;5154533;27;20010;-71
2023/01/25 12:06:25;;;;;;;122.82;32.95;;;;;;;;;;5125965;22;20089;-69
2023/01/25 12:09:04;;;;;;;120.00;31.30;;;;;;;;;;4994933;28;20042;-68
2023/01/25 12:11:43;;;;;;;129.98;34.08;;;;;;;;;;5012657;28;20042;-68
2023/01/25 12:14:15;;;;;;;129.45;33.40;;;;;;;;;;5012545;28;20045;-68
2023/01/25 12:16:56;;;;;;;121.72;32.20;;;;;;;;;;5012549;28;20041;-68
2023/01/25 12:19:25;;;;;;;122.72;31.70;;;;;;;;;;5012643;28;20088;-68
2023/01/25 12:22:00;;;;;;;120.10;32.58;;;;;;;;;;5012712;28;20049;-68
2023/01/25 12:24:26;;;;;;;135.07;35.28;;;;;;;;;;5012518;28;20446;-68
2023/01/25 12:27:04;;;;;;;122.65;32.38;;;;;;;;;;5012471;28;20077;-68
2023/01/25 12:29:38;;;;;;;119.88;31.67;;;;;;;;;;5012348;28;20053;-68
2023/01/25 12:32:07;;;;;;;133.10;34.70;;;;;;;;;;5012461;28;20042;-68
2023/01/25 12:34:34;;;;;;;120.13;31.83;;;;;;;;;;5012322;28;20056;-68
2023/01/25 12:37:05;;;;;;;119.30;32.40;;;;;;;;;;5011909;28;20054;-74
2023/01/25 12:39:34;;;;;;;125.55;33.53;;;;;;;;;;5012241;28;20045;-68
2023/01/25 12:42:05;;;;;;;122.80;31.25;;;;;;;;;;4994610;28;20054;-70
2023/01/25 12:44:41;;;;;;;125.93;32.78;;;;;;;;;;5012267;28;20441;-70
2023/01/25 12:47:14;;;;;;;125.13;32.42;;;;;;;;;;5011991;28;20498;-68
2023/01/25 12:49:49;;;;;;;120.75;32.25;;;;;;;;;;5012099;28;20085;-70
2023/01/25 12:52:20;;;;;;;123.00;33.13;;;;;;;;;;5012129;28;20107;-70
2023/01/25 12:54:47;;;;;;;126.40;32.90;;;;;;;;;;5012484;28;20063;-68
2023/01/25 12:57:16;;;;;;;120.53;31.73;;;;;;;;;;4994456;28;20068;-68
2023/01/25 13:00:05;;;;;;;124.32;32.22;;;;;;;;;;5012079;28;20092;-68
2023/01/25 13:03:03;;;;;;;120.40;33.95;;;2.20;99.90;;;;;;5011527;28;20111;-71
2023/01/25 13:05:29;;;;;;;126.93;35.05;;;;;;;;;;4942469;28;20062;-67
2023/01/25 13:08:23;;;;;;;124.60;33.28;;;1.60;99.90;;;;;;5011782;28;20379;-71
2023/01/25 13:10:52;;;;;;;134.20;35.15;;;;;;;;;;5003818;28;20112;-68
2023/01/25 13:13:25;;;;;;;128.48;33.13;;;;;;;;;;4994315;28;20104;-68
2023/01/25 13:15:52;;;;;;;145.57;35.10;;;;;;;;;;5011903;28;20129;-68
2023/01/25 13:18:27;;;;;;;121.57;34.60;;;;;;;;;;4994242;28;20112;-68
2023/01/25 13:20:55;;;;;;;125.90;33.65;;;;;;;;;;5011853;28;20049;-68
2023/01/25 13:23:31;;;;;;;131.07;34.08;;;;;;;;;;5011822;28;20367;-69
2023/01/25 13:26:27;;;;;;;134.25;35.78;;;1.60;99.90;;;;;;5011888;28;20058;-68
2023/01/25 13:28:54;;;;;;;133.25;33.47;;;;;;;;;;5011497;28;20521;-70
2023/01/25 13:31:38;;;;;;;126.93;34.22;;;;;;;;;;5011747;28;20149;-68
2023/01/25 13:34:23;;;;;;;138.98;34.67;;;;;;;;;;5011699;28;20045;-68
2023/01/25 13:36:52;;;;;;;139.40;34.65;;;;;;;;;;5011740;28;20112;-69
2023/01/25 13:39:27;;;;;;;125.70;33.22;;;;;;;;;;5011341;28;20494;-68
2023/01/25 13:42:02;;;;;;;133.55;34.58;;;;;;;;;;5011658;28;20054;-71
2023/01/25 13:44:31;;;;;;;129.68;34.90;;;;;;;;;;5011661;28;20471;-68
2023/01/25 13:46:59;;;;;;;130.70;32.40;;;;;;;;;;4994397;28;20050;-68
2023/01/25 13:49:31;;;;;;;131.23;35.35;;;;;;;;;;5014871;28;20046;-68
2023/01/25 13:51:58;;;;;;;121.28;34.53;;;;;;;;;;4997650;28;20041;-68
2023/01/25 13:54:24;;;;;;;133.85;35.95;;;;;;;;;;4997512;28;20050;-68
2023/01/25 13:57:03;;;;;;;129.95;34.60;;;;;;;;;;5015060;28;20054;-71
2023/01/25 13:59:29;;;;;;;121.63;32.75;;;;;;;;;;5015058;28;20045;-68
2023/01/25 14:01:56;;;;;;;129.48;34.38;;;;;;;;;;4997453;28;20049;-68
2023/01/25 14:04:22;;;;;;;120.20;33.95;;;;;;;;;;5014640;28;20128;-68
2023/01/25 14:06:48;;;;;;;114.10;33.20;;;;;;;;;;5014924;28;20131;-66
2023/01/25 14:09:19;;;;;;;109.13;31.77;;;;;;;;;;5014699;28;20602;-67
2023/01/25 14:11:49;;;;;;;120.30;33.25;;;;;;;;;;5014426;28;20498;-66
2023/01/25 14:14:34;;;;;;;119.22;34.13;;;;;;;;;;5014712;28;20173;-68
2023/01/25 14:17:20;;;;;;;109.72;31.92;;;;;;;;;;5014890;28;20763;-65
2023/01/25 14:19:56;;;;;;;115.85;33.53;;;;;;;;;;5014706;28;20085;-66
2023/01/25 14:22:26;;;;;;;114.40;30.70;;;;;;;;;;4997169;28;20053;-66
2023/01/25 14:25:12;;;;;;;119.53;34.45;;;;;;;;;;5014536;28;20049;-66
2023/01/25 14:27:46;;;;;;;114.53;33.03;;;;;;;;;;5014451;28;20109;-66
2023/01/25 14:30:23;;;;;;;112.90;32.05;;;;;;;;;;5014456;28;20048;-65
2023/01/25 14:32:50;;;;;;;108.65;35.53;;;;;;;;;;5014446;28;20052;-65
2023/01/25 14:35:32;;;;;;;118.07;34.97;;;;;;;;;;5014437;28;20061;-66
2023/01/25 14:38:01;;;;;;;115.50;34.42;;;;;;;;;;5014438;28;20046;-65
2023/01/25 14:40:28;;;;;;;121.50;33.88;;;;;;;;;;5014253;28;20108;-66